Time;durP1;ratioP1;P1;durP2;ratioP2;P2;SDS_P1;SDS_P2;PMS_P1;PMS_P2;Temp;Humidity;BMP_temperature;BMP_pressure;BME280_temperature;BME280_humidity;BME280_pressure;Samples;Min_cycle;Max_cycle;Signal;HPM_P1;HPM_P2
2022/11/24 00:01:42;;;;;;;8.98;3.83;;;;;;;;;;5026979;28;20096;-91
2022/11/24 00:04:16;;;;;;;7.97;3.67;;;;;;;;;;5014376;28;20049;-90
2022/11/24 00:06:44;;;;;;;8.45;4.28;;;;;;;;;;4996743;28;20076;-90
2022/11/24 00:09:12;;;;;;;6.75;4.00;;;;;;;;;;5013089;28;20104;-91
2022/11/24 00:12:04;;;;;;;9.48;3.55;;;;;;;;;;5026727;28;20041;-90
2022/11/24 00:14:32;;;;;;;8.13;4.78;;;;;;;;;;5012711;28;20050;-89
2022/11/24 00:17:00;;;;;;;8.60;3.78;;;;;;;;;;5008082;28;20510;-90
2022/11/24 00:19:54;;;;;;;8.30;3.80;;;;;;;;;;5022987;28;20041;-89
2022/11/24 00:22:22;;;;;;;9.23;3.33;;;;;;;;;;4994104;28;20049;-90
2022/11/24 00:24:50;;;;;;;10.13;4.20;;;;;;;;;;4977209;28;20056;-89
2022/11/24 00:27:18;;;;;;;8.85;3.72;;;;;;;;;;4977400;28;20219;-89
2022/11/24 00:29:46;;;;;;;12.75;4.10;;;;;;;;;;4996284;28;20077;-89
2022/11/24 00:32:14;;;;;;;9.02;3.75;;;;;;;;;;5023760;28;20050;-89
2022/11/24 00:35:06;;;;;;;7.07;3.72;;;;;;;;;;4997724;28;20123;-90
2022/11/24 00:37:34;;;;;;;9.30;4.03;;;;;;;;;;4992242;28;20054;-90
2022/11/24 00:40:02;;;;;;;7.80;3.90;;;;;;;;;;5024044;28;20073;-89
2022/11/24 00:42:30;;;;;;;8.70;4.22;;;;;;;;;;4984972;28;20498;-89
2022/11/24 00:44:58;;;;;;;9.65;3.88;;;;;;;;;;4992874;28;20085;-89
2022/11/24 00:47:40;;;;;;;8.50;3.65;;;;;;;;;;4991141;28;20073;-89
2022/11/24 00:50:08;;;;;;;6.93;3.53;;;;;;;;;;5009313;28;20077;-90
2022/11/24 00:52:36;;;;;;;11.80;4.15;;;;;;;;;;5004669;28;20057;-89
2022/11/24 00:55:04;;;;;;;11.85;4.20;;;;;;;;;;5010671;28;20132;-89
2022/11/24 00:57:38;;;;;;;7.72;4.25;;;;;;;;;;5010565;28;20569;-89
2022/11/24 01:00:07;;;;;;;12.40;4.60;;;;;;;;;;4990320;28;20096;-89
2022/11/24 01:02:39;;;;;;;12.75;4.50;;;;;;;;;;5011316;28;20125;-89
2022/11/24 01:05:08;;;;;;;5.97;3.63;;;;;;;;;;4991770;28;20057;-89
2022/11/24 01:07:36;;;;;;;10.15;3.95;;;;;;;;;;5010773;28;20049;-90
2022/11/24 01:10:04;;;;;;;14.95;4.40;;;;;;;;;;4979092;28;20467;-90
2022/11/24 01:12:33;;;;;;;9.00;4.25;;;;;;;;;;4996191;28;20050;-89
2022/11/24 01:15:06;;;;;;;8.63;3.90;;;;;;;;;;4999340;28;20056;-90
2022/11/24 01:17:34;;;;;;;10.65;4.57;;;;;;;;;;5010367;28;20076;-91
2022/11/24 01:20:03;;;;;;;12.20;4.03;;;;;;;;;;5013311;28;20046;-90
2022/11/24 01:22:33;;;;;;;8.20;4.15;;;;;;;;;;5013896;28;20046;-90
2022/11/24 01:25:06;;;;;;;11.18;4.00;;;;;;;;;;4996067;28;20056;-90
2022/11/24 01:27:34;;;;;;;8.52;3.78;;;;;;;;;;4994786;28;20054;-89
2022/11/24 01:30:03;;;;;;;8.60;3.70;;;;;;;;;;5012051;28;20511;-89
2022/11/24 01:32:32;;;;;;;8.60;4.07;;;;;;;;;;4993968;28;20061;-90
2022/11/24 01:35:06;;;;;;;7.82;3.45;;;;;;;;;;4995804;28;20046;-90
2022/11/24 01:37:34;;;;;;;8.02;3.65;;;;;;;;;;5008401;28;20579;-89
2022/11/24 01:40:02;;;;;;;8.63;3.75;;;;;;;;;;4995516;28;20041;-90
2022/11/24 01:42:56;;;;;;;12.13;3.72;;;;;;;;;;5012698;28;20060;-90
2022/11/24 01:45:39;;;;;;;10.07;3.85;;;;;;;;;;4996319;28;20077;-90
2022/11/24 01:48:37;;;;;;;11.80;3.90;;;;;;;;;;5013369;28;20065;-90
2022/11/24 01:51:13;;;;;;;10.38;3.88;;;;;;;;;;4992599;28;20553;-90
2022/11/24 01:53:59;;;;;;;8.10;3.83;;;;;;;;;;4993348;28;20045;-89
2022/11/24 01:56:34;;;;;;;9.75;3.60;;;;;;;;;;4981892;28;20393;-89
2022/11/24 01:59:05;;;;;;;14.00;3.67;;;;;;;;;;5014057;28;20096;-90
2022/11/24 02:01:34;;;;;;;6.43;3.50;;;;;;;;;;5009089;28;20045;-89
2022/11/24 02:04:06;;;;;;;10.95;3.80;;;;;;;;;;5014935;28;20050;-91
2022/11/24 02:07:00;;;;;;;8.77;3.65;;;;;;;;;;4993582;28;20053;-89
2022/11/24 02:13:17;;;;;;;7.90;3.47;;;;;;;;;;5012897;28;20050;-90
2022/11/24 02:15:44;;;;;;;12.20;3.42;;;;;;;;;;5013005;28;20097;-90
2022/11/24 02:18:12;;;;;;;11.00;3.80;;;;;;;;;;5005635;28;20136;-90
2022/11/24 02:20:40;;;;;;;12.23;4.40;;;;;;;;;;4996169;28;20042;-91
2022/11/24 02:23:29;;;;;;;7.38;3.42;;;;;;;;;;4982029;28;20137;-90
2022/11/24 02:26:08;;;;;;;9.93;3.75;;;;;;;;;;5008896;28;20129;-90
2022/11/24 02:28:42;;;;;;;7.47;3.95;;;;;;;;;;4995982;28;20058;-90
2022/11/24 02:31:10;;;;;;;8.85;3.90;;;;;;;;;;5007330;28;20054;-90
2022/11/24 02:33:38;;;;;;;10.43;3.55;;;;;;;;;;5013324;28;20530;-89
2022/11/24 02:36:06;;;;;;;8.50;3.60;;;;;;;;;;5011361;28;20132;-90
2022/11/24 02:38:34;;;;;;;8.98;3.67;;;;;;;;;;5013032;28;20053;-90
2022/11/24 02:41:06;;;;;;;10.65;4.00;;;;;;;;;;4995683;28;20056;-90
2022/11/24 02:43:38;;;;;;;10.75;4.50;;;;;;;;;;5013022;28;20072;-90
2022/11/24 02:46:07;;;;;;;8.68;3.75;;;;;;;;;;4993811;28;20073;-90
2022/11/24 02:48:34;;;;;;;11.63;3.72;;;;;;;;;;5013050;28;20054;-90
2022/11/24 02:51:02;;;;;;;10.98;3.75;;;;;;;;;;5013399;28;20476;-89
2022/11/24 02:53:30;;;;;;;10.43;4.30;;;;;;;;;;4976741;28;20055;-90
2022/11/24 02:55:58;;;;;;;8.90;4.03;;;;;;;;;;5012114;28;20050;-89
2022/11/24 02:58:30;;;;;;;15.38;4.40;;;;;;;;;;4989076;28;20427;-90
2022/11/24 03:00:58;;;;;;;8.40;3.38;;;;;;;;;;4994229;28;20066;-90
2022/11/24 03:03:32;;;;;;;7.72;3.65;;;;;;;;;;5012184;28;20053;-89
2022/11/24 03:06:00;;;;;;;9.82;3.60;;;;;;;;;;4993582;28;20052;-89
2022/11/24 03:08:32;;;;;;;8.27;4.22;;;;;;;;;;5002608;28;20054;-89
2022/11/24 03:11:01;;;;;;;11.18;4.55;;;;;;;;;;5013391;28;20046;-89
2022/11/24 03:13:30;;;;;;;7.88;3.75;;;;;;;;;;5013367;28;20496;-90
2022/11/24 03:15:58;;;;;;;7.47;3.70;;;;;;;;;;4994075;28;20046;-89
2022/11/24 03:18:26;;;;;;;9.45;4.20;;;;;;;;;;5011386;28;20052;-90
2022/11/24 03:20:59;;;;;;;11.45;3.55;;;;;;;;;;5027261;28;20129;-91
2022/11/24 03:23:26;;;;;;;8.05;3.95;;;;;;;;;;4979834;28;20096;-90
2022/11/24 03:25:54;;;;;;;10.73;3.80;;;;;;;;;;4994740;28;20061;-90
2022/11/24 03:28:22;;;;;;;9.77;3.70;;;;;;;;;;4996344;28;20073;-90
2022/11/24 03:30:50;;;;;;;9.43;3.88;;;;;;;;;;5012160;28;20492;-90
2022/11/24 03:33:18;;;;;;;12.45;3.83;;;;;;;;;;5013255;28;20101;-89
2022/11/24 03:35:50;;;;;;;11.73;4.28;;;;;;;;;;4996031;28;20060;-91
2022/11/24 03:38:18;;;;;;;10.38;3.47;;;;;;;;;;4997147;28;20516;-90
2022/11/24 03:40:52;;;;;;;12.13;3.75;;;;;;;;;;5013646;28;20046;-90
2022/11/24 03:43:24;;;;;;;11.70;3.75;;;;;;;;;;5013311;28;20123;-90
2022/11/24 03:45:52;;;;;;;7.47;3.40;;;;;;;;;;5010221;28;20045;-90
2022/11/24 03:48:44;;;;;;;10.73;4.38;;;;;;;;;;4979255;28;20054;-90
2022/11/24 03:51:12;;;;;;;8.77;3.42;;;;;;;;;;4979884;28;20076;-90
2022/11/24 03:53:40;;;;;;;9.13;3.97;;;;;;;;;;5013188;28;20042;-90
2022/11/24 03:56:08;;;;;;;7.30;3.88;;;;;;;;;;5005873;28;20922;-90
2022/11/24 03:58:36;;;;;;;10.70;4.13;;;;;;;;;;4995494;28;20141;-90
2022/11/24 04:01:08;;;;;;;8.05;3.60;;;;;;;;;;5012610;28;20060;-90
2022/11/24 04:03:40;;;;;;;9.38;3.92;;;;;;;;;;4980125;28;20419;-90
2022/11/24 04:06:08;;;;;;;9.30;3.88;;;;;;;;;;4982341;28;20046;-90
2022/11/24 04:08:36;;;;;;;10.15;3.72;;;;;;;;;;4981190;28;20137;-90
2022/11/24 04:11:04;;;;;;;11.20;4.13;;;;;;;;;;5014644;28;20073;-90
2022/11/24 04:13:32;;;;;;;8.35;3.55;;;;;;;;;;4997971;28;20050;-89
2022/11/24 04:16:04;;;;;;;9.00;4.15;;;;;;;;;;4995604;28;20045;-90
2022/11/24 04:18:38;;;;;;;11.23;3.72;;;;;;;;;;4996994;28;20069;-90
2022/11/24 04:21:05;;;;;;;10.32;3.67;;;;;;;;;;4980701;28;20046;-90
2022/11/24 04:23:34;;;;;;;9.68;3.90;;;;;;;;;;5015872;28;20529;-90
2022/11/24 04:26:02;;;;;;;9.02;3.90;;;;;;;;;;5016013;28;20049;-90
2022/11/24 04:28:30;;;;;;;9.55;4.22;;;;;;;;;;5028904;28;20050;-90
2022/11/24 04:31:02;;;;;;;11.98;4.10;;;;;;;;;;5015700;28;20046;-90
2022/11/24 04:33:30;;;;;;;14.00;4.47;;;;;;;;;;5030887;28;20053;-90
2022/11/24 04:35:58;;;;;;;13.48;4.03;;;;;;;;;;4983671;28;20049;-91
2022/11/24 04:38:26;;;;;;;8.80;4.25;;;;;;;;;;5025343;28;20092;-90
2022/11/24 04:41:18;;;;;;;10.73;4.60;;;;;;;;;;5015943;28;20049;-90
2022/11/24 04:43:49;;;;;;;9.45;3.97;;;;;;;;;;5008360;28;20112;-90
2022/11/24 04:46:16;;;;;;;14.23;4.50;;;;;;;;;;4999256;28;20129;-90
2022/11/24 04:48:44;;;;;;;13.32;5.40;;;;;;;;;;5015678;28;20050;-90
2022/11/24 04:51:13;;;;;;;11.93;5.22;;;;;;;;;;4981859;28;20120;-90
2022/11/24 04:53:40;;;;;;;13.80;5.13;;;;;;;;;;5001484;28;20046;-90
2022/11/24 04:59:11;;;;;;;18.13;4.60;;;;;;;;;;5014475;28;20548;-90
2022/11/24 05:01:38;;;;;;;9.75;4.28;;;;;;;;;;4995085;28;20053;-90
2022/11/24 05:04:11;;;;;;;11.80;4.85;;;;;;;;;;4997435;28;20049;-90
2022/11/24 05:06:40;;;;;;;8.13;4.05;;;;;;;;;;4997903;28;20045;-89
2022/11/24 05:09:15;;;;;;;9.98;4.65;;;;;;;;;;5014570;28;20064;-90
2022/11/24 05:12:14;;;;;;;11.73;4.47;;;;;;;;;;5002337;28;20068;-89
2022/11/24 05:14:42;;;;;;;12.95;4.50;;;;;;;;;;4998319;28;20049;-90
2022/11/24 05:17:10;;;;;;;9.95;4.70;;;;;;;;;;5013200;28;20064;-89
2022/11/24 05:19:38;;;;;;;9.77;4.43;;;;;;;;;;4997869;28;20924;-90
2022/11/24 05:22:30;;;;;;;10.43;4.82;;;;;;;;;;5014467;28;20042;-90
2022/11/24 05:24:58;;;;;;;8.65;4.72;;;;;;;;;;4997634;28;20571;-89
2022/11/24 05:27:26;;;;;;;13.68;4.35;;;;;;;;;;5002888;28;20062;-90
2022/11/24 05:29:54;;;;;;;10.80;4.38;;;;;;;;;;5006060;28;20133;-90
2022/11/24 05:32:27;;;;;;;14.55;5.10;;;;;;;;;;5029215;28;20049;-90
2022/11/24 05:35:01;;;;;;;9.82;4.10;;;;;;;;;;5012847;28;20056;-90
2022/11/24 05:37:28;;;;;;;11.20;3.95;;;;;;;;;;4997286;28;20548;-90
2022/11/24 05:40:20;;;;;;;12.07;4.47;;;;;;;;;;5011648;28;20038;-90
2022/11/24 05:42:47;;;;;;;17.10;4.28;;;;;;;;;;5011646;28;20656;-90
2022/11/24 05:45:18;;;;;;;10.40;4.40;;;;;;;;;;4996452;28;20050;-90
2022/11/24 05:47:47;;;;;;;12.80;4.18;;;;;;;;;;5012497;28;20037;-88
2022/11/24 05:50:18;;;;;;;11.07;4.50;;;;;;;;;;4976903;28;20543;-91
2022/11/24 05:52:51;;;;;;;10.80;4.25;;;;;;;;;;5025299;28;20077;-90
2022/11/24 05:55:24;;;;;;;8.23;4.00;;;;;;;;;;4995323;28;20046;-89
2022/11/24 05:58:00;;;;;;;7.78;3.60;;;;;;;;;;4999292;28;20073;-88
2022/11/24 06:00:29;;;;;;;14.18;4.60;;;;;;;;;;4997112;28;20065;-89
2022/11/24 06:02:59;;;;;;;17.98;4.72;;;;;;;;;;5012763;28;20046;-90
2022/11/24 06:05:27;;;;;;;11.38;4.63;;;;;;;;;;4982887;28;20054;-90
2022/11/24 06:07:57;;;;;;;10.02;5.05;;;;;;;;;;4997600;28;20080;-90
2022/11/24 06:10:27;;;;;;;14.15;5.03;;;;;;;;;;5016858;28;20034;-88
2022/11/24 06:13:05;;;;;;;12.43;5.05;;;;;;;;;;5001091;28;20444;-88
2022/11/24 06:15:36;;;;;;;13.63;5.00;;;;;;;;;;5008433;28;20529;-88
2022/11/24 06:18:04;;;;;;;12.93;4.75;;;;;;;;;;4990197;28;20050;-89
2022/11/24 06:20:32;;;;;;;14.35;4.43;;;;;;;;;;5008162;28;20492;-86
2022/11/24 06:23:00;;;;;;;11.85;4.15;;;;;;;;;;5008110;28;20137;-88
2022/11/24 06:25:29;;;;;;;16.75;4.10;;;;;;;;;;5009666;28;20096;-88
2022/11/24 06:28:03;;;;;;;9.52;4.30;;;;;;;;;;5010142;28;20077;-88
2022/11/24 06:31:00;;;;;;;10.60;4.47;;;;;;;;;;4991099;28;20045;-88
2022/11/24 06:33:33;;;;;;;11.88;4.13;;;;;;;;;;5010902;28;21002;-90
2022/11/24 06:36:06;;;;;;;6.90;4.03;;;;;;;;;;4992531;28;20046;-88
2022/11/24 06:38:34;;;;;;;8.80;4.18;;;;;;;;;;4990878;28;20054;-90
2022/11/24 06:41:08;;;;;;;9.85;4.45;;;;;;;;;;4992789;28;20093;-89
2022/11/24 06:43:36;;;;;;;10.52;4.25;;;;;;;;;;5006736;28;20065;-89
2022/11/24 06:46:04;;;;;;;17.77;4.70;;;;;;;;;;5011169;28;20049;-89
2022/11/24 06:48:56;;;;;;;11.23;3.78;;;;;;;;;;4981396;28;20050;-90
2022/11/24 06:51:28;;;;;;;9.07;3.95;;;;;;;;;;4998240;28;20100;-90
2022/11/24 06:53:56;;;;;;;11.98;4.35;;;;;;;;;;4988737;28;20054;-89
2022/11/24 06:56:48;;;;;;;14.57;4.45;;;;;;;;;;5002323;28;20034;-90
2022/11/24 06:59:20;;;;;;;16.58;4.18;;;;;;;;;;5010374;28;20060;-90
2022/11/24 07:02:12;;;;;;;13.27;4.43;;;;;;;;;;4979621;28;20041;-89
2022/11/24 07:05:04;;;;;;;10.25;4.18;;;;;;;;;;5008468;28;20049;-89
2022/11/24 07:07:37;;;;;;;7.70;3.85;;;;;;;;;;4979836;28;20053;-89
2022/11/24 07:10:10;;;;;;;12.35;4.25;;;;;;;;;;5006841;28;20057;-89
2022/11/24 07:13:02;;;;;;;14.27;4.90;;;;;;;;;;4993662;28;20475;-90
2022/11/24 07:15:53;;;;;;;10.27;4.05;;;;;;;;;;4987124;28;20045;-89
2022/11/24 07:18:53;;;;;;;14.23;4.35;;;;;;;;;;5011327;28;20518;-90
2022/11/24 07:21:27;;;;;;;9.70;4.07;;;;;;;;;;4993023;28;20046;-90
2022/11/24 07:23:56;;;;;;;11.65;4.95;;;;;;;;;;5009490;28;20049;-90
2022/11/24 07:26:24;;;;;;;12.20;4.70;;;;;;;;;;5011155;28;20530;-89
2022/11/24 07:28:58;;;;;;;12.55;4.63;;;;;;;;;;4990791;28;20140;-89
2022/11/24 07:31:30;;;;;;;16.45;4.20;;;;;;;;;;5006852;28;20050;-91
2022/11/24 07:33:58;;;;;;;10.00;4.38;;;;;;;;;;4993740;28;20050;-90
2022/11/24 07:36:30;;;;;;;11.45;4.20;;;;;;;;;;4994159;28;20145;-89
2022/11/24 07:39:04;;;;;;;9.40;4.60;;;;;;;;;;5005798;28;20049;-88
2022/11/24 07:41:32;;;;;;;11.57;4.47;;;;;;;;;;5009934;28;21357;-89
2022/11/24 07:44:00;;;;;;;15.20;5.55;;;;;;;;;;5012155;28;20053;-90
2022/11/24 07:46:28;;;;;;;17.35;5.82;;;;;;;;;;4996757;28;20053;-90
2022/11/24 07:48:56;;;;;;;10.55;5.50;;;;;;;;;;4989950;28;20081;-89
2022/11/24 07:51:24;;;;;;;18.88;5.10;;;;;;;;;;5004020;28;20042;-88
2022/11/24 07:53:52;;;;;;;15.98;5.10;;;;;;;;;;4985245;28;20053;-89
2022/11/24 07:56:20;;;;;;;14.48;5.22;;;;;;;;;;5023182;28;20050;-89
2022/11/24 07:58:52;;;;;;;13.73;5.18;;;;;;;;;;5023378;28;20042;-88
2022/11/24 08:01:20;;;;;;;18.65;5.53;;;;;;;;;;5006865;28;20076;-88
2022/11/24 08:03:48;;;;;;;11.00;4.53;;;;;;;;;;4976324;28;20046;-88
2022/11/24 08:06:17;;;;;;;16.40;5.18;;;;;;;;;;4992234;28;20397;-88
2022/11/24 08:09:08;;;;;;;19.05;5.10;;;;;;;;;;4994656;28;20053;-88
2022/11/24 08:11:36;;;;;;;12.38;4.78;;;;;;;;;;5010635;28;20587;-88
2022/11/24 08:14:04;;;;;;;13.38;5.47;;;;;;;;;;5010957;28;20077;-89
2022/11/24 08:16:32;;;;;;;10.63;5.13;;;;;;;;;;4993606;28;20054;-89
2022/11/24 08:19:00;;;;;;;10.60;4.60;;;;;;;;;;5011187;28;20053;-88
2022/11/24 08:21:33;;;;;;;13.50;5.03;;;;;;;;;;4994480;28;20050;-89
2022/11/24 08:24:00;;;;;;;9.90;4.43;;;;;;;;;;4993358;28;20050;-89
2022/11/24 08:26:30;;;;;;;18.35;5.28;;;;;;;;;;4991294;28;20049;-89
2022/11/24 08:28:58;;;;;;;11.02;5.20;;;;;;;;;;5011443;28;20056;-88
2022/11/24 08:31:31;;;;;;;11.30;5.03;;;;;;;;;;5009280;28;20506;-89
2022/11/24 08:34:01;;;;;;;19.27;5.13;;;;;;;;;;5011754;28;20057;-88
2022/11/24 08:36:30;;;;;;;17.95;4.60;;;;;;;;;;5011631;28;20046;-88
2022/11/24 08:39:24;;;;;;;14.27;5.35;;;;;;;;;;5020722;28;20073;-89
2022/11/24 08:41:52;;;;;;;14.50;5.32;;;;;;;;;;5011603;28;20068;-88
2022/11/24 08:44:20;;;;;;;14.30;4.72;;;;;;;;;;5008813;28;20191;-88
2022/11/24 08:47:16;;;;;;;15.63;4.78;;;;;;;;;;4990688;28;20536;-89
2022/11/24 08:49:44;;;;;;;13.05;5.10;;;;;;;;;;5007098;28;20081;-89
2022/11/24 08:52:36;;;;;;;15.02;4.97;;;;;;;;;;4991631;28;20045;-89
2022/11/24 08:55:08;;;;;;;15.00;5.97;;;;;;;;;;5009654;28;20037;-88
2022/11/24 08:57:36;;;;;;;20.20;6.63;;;;;;;;;;5006384;28;20046;-89
2022/11/24 09:00:04;;;;;;;16.95;6.22;;;;;;;;;;5009288;28;21861;-89
2022/11/24 09:02:32;;;;;;;15.90;5.15;;;;;;;;;;4961834;28;20088;-89
2022/11/24 09:05:00;;;;;;;16.05;6.57;;;;;;;;;;4997023;28;20132;-89
2022/11/24 09:07:28;;;;;;;21.23;8.13;;;;;;;;;;5016718;28;20514;-89
2022/11/24 09:10:00;;;;;;;33.20;8.43;;;;;;;;;;5015116;28;20048;-88
2022/11/24 09:12:28;;;;;;;24.17;7.00;;;;;;;;;;4998419;28;20050;-89
2022/11/24 09:14:55;;;;;;;20.30;8.07;;;;;;;;;;5018693;28;20129;-89
2022/11/24 09:17:28;;;;;;;23.27;7.55;;;;;;;;;;5013804;28;20049;-89
2022/11/24 09:19:56;;;;;;;19.08;6.05;;;;;;;;;;4999939;28;20137;-90
2022/11/24 09:22:29;;;;;;;18.52;5.05;;;;;;;;;;5013395;28;20046;-89
2022/11/24 09:24:58;;;;;;;14.52;6.00;;;;;;;;;;5011441;28;20050;-89
2022/11/24 09:27:28;;;;;;;17.27;6.82;;;;;;;;;;5011550;28;20133;-89
2022/11/24 09:29:58;;;;;;;15.55;6.50;;;;;;;;;;4996395;28;20042;-88
2022/11/24 09:32:29;;;;;;;17.30;6.10;;;;;;;;;;4992210;28;20046;-90
2022/11/24 09:34:58;;;;;;;14.50;6.50;;;;;;;;;;4998692;28;20553;-89
2022/11/24 09:37:26;;;;;;;14.68;6.05;;;;;;;;;;5013694;28;20120;-89
2022/11/24 09:40:00;;;;;;;15.10;5.90;;;;;;;;;;5013917;28;20046;-90
2022/11/24 09:43:22;;;;;;;18.60;6.20;;;;;;;;;;5016673;28;20057;-89
2022/11/24 09:46:26;;;;;;;20.70;5.95;;;;;;;;;;5007826;28;20579;-89
2022/11/24 09:48:56;;;;;;;16.55;5.50;;;;;;;;;;4998176;28;20480;-90
2022/11/24 09:51:28;;;;;;;19.17;6.25;;;;;;;;;;4999443;28;20149;-89
2022/11/24 09:54:04;;;;;;;19.52;6.38;;;;;;;;;;5012574;28;20151;-91
2022/11/24 09:56:35;;;;;;;20.30;5.63;;;;;;;;;;5002339;28;20054;-89
2022/11/24 09:59:28;;;;;;;17.67;5.78;;;;;;;;;;5018497;28;20038;-88
2022/11/24 10:01:56;;;;;;;22.55;7.03;;;;;;;;;;4998744;28;20068;-89
2022/11/24 10:04:40;;;;;;;21.80;6.45;;;;;;;;;;5015346;28;20054;-89
2022/11/24 10:07:22;;;;;;;22.17;5.93;;;;;;;;;;5010476;28;20049;-89
2022/11/24 10:09:58;;;;;;;18.23;5.65;;;;;;;;;;5014308;28;20120;-89
2022/11/24 10:12:47;;;;;;;21.33;6.03;;;;;;;;;;5000398;28;20042;-89
2022/11/24 10:15:17;;;;;;;19.77;5.70;;;;;;;;;;5013128;28;20479;-89
2022/11/24 10:18:31;;;;;;;24.20;6.32;;;;;;;;;;5028975;28;20217;-90
2022/11/24 10:21:12;;;;;;;17.73;5.35;;;;;;;;;;5014345;28;20046;-90
2022/11/24 10:24:35;;;;;;;19.15;5.47;;;;;;;;;;5015479;28;20054;-90
2022/11/24 10:27:14;;;;;;;22.13;5.88;;;;;;;;;;4937614;29;20078;-89
2022/11/24 10:29:42;;;;;;;18.98;5.15;;;;;;;;;;4936932;29;20079;-90
2022/11/24 10:32:35;;;;;;;26.42;5.65;;;;;;;;;;4933870;29;20048;-90
2022/11/24 10:35:19;;;;;;;13.75;5.38;;;;;;;;;;4938743;29;20114;-89
2022/11/24 10:38:06;;;;;;;25.50;5.47;;;;;;;;;;4934493;29;20079;-89
2022/11/24 10:41:03;;;;;;;27.77;6.35;;;;;;;;;;4938374;29;20749;-89
2022/11/24 10:43:32;;;;;;;38.42;9.35;;;;;;;;;;4932221;29;20066;-89
2022/11/24 10:46:36;;;;;;;18.63;6.45;;;;;;;;;;4935247;29;20056;-89
2022/11/24 10:49:06;;;;;;;15.43;5.32;;;;;;;;;;4897707;29;20224;-90
2022/11/24 10:51:46;;;;;;;16.40;6.18;;;;;;;;;;4895738;29;20094;-89
2022/11/24 10:54:22;;;;;;;15.73;5.00;;;;;;;;;;4896671;29;20102;-89
2022/11/24 10:56:52;;;;;;;16.55;5.32;;;;;;;;;;4896352;29;20973;-89
2022/11/24 10:59:22;;;;;;;13.30;5.13;;;;;;;;;;4899902;29;20048;-88
2022/11/24 11:01:53;;;;;;;18.05;5.38;;;;;;;;;;4880522;29;20085;-89
2022/11/24 11:04:31;;;;;;;17.42;4.90;;;;;;;;;;4919043;29;20075;-88
2022/11/24 11:07:09;;;;;;;18.60;4.97;;;;;;;;;;4906920;29;20059;-89
2022/11/24 11:09:36;;;;;;;19.85;6.15;;;;;;;;;;4934280;29;20151;-89
2022/11/24 11:12:20;;;;;;;12.82;5.20;;;;;;;;;;4935801;29;20056;-89
2022/11/24 11:15:34;;;;;;;14.68;5.43;;;;;;;;;;4938782;29;20055;-90
2022/11/24 11:18:03;;;;;;;20.48;4.70;;;;;;;;;;4924919;29;20054;-89
2022/11/24 11:20:36;;;;;;;16.33;5.10;;;;;;;;;;4940373;29;20052;-90
2022/11/24 11:23:18;;;;;;;13.93;4.90;;;;;;;;;;4978390;28;20050;-89
2022/11/24 11:26:23;;;;;;;15.63;4.45;;;;;;;;;;4997801;28;20034;-89
2022/11/24 11:29:02;;;;;;;15.43;5.03;;;;;;;;;;5002601;28;20100;-89
2022/11/24 11:32:03;;;;;;;11.05;5.00;;;;;;;;;;5019983;28;20041;-90
2022/11/24 11:34:53;;;;;;;16.98;4.18;;;;;;;;;;4988121;28;20060;-89
2022/11/24 11:37:29;;;;;;;18.48;5.18;;;;;;;;;;5018899;28;20053;-90
2022/11/24 11:39:59;;;;;;;23.38;5.32;;;;;;;;;;5033485;28;20058;-89
2022/11/24 11:42:32;;;;;;;15.00;4.43;;;;;;;;;;5001151;28;20057;-90
2022/11/24 11:45:45;;;;;;;16.55;4.35;;;;;;;;;;5017143;28;20122;-89
2022/11/24 11:48:25;;;;;;;22.00;4.15;;;;;;;;;;5001305;28;20046;-89
2022/11/24 11:51:36;;;;;;;22.45;4.65;;;;;;;;;;5005742;28;20050;-89
2022/11/24 11:54:28;;;;;;;17.13;4.55;;;;;;;;;;5017401;28;20108;-89
2022/11/24 11:57:10;;;;;;;17.48;4.68;;;;;;;;;;5015579;28;20042;-90
2022/11/24 12:00:03;;;;;;;22.40;4.95;;;;;;;;;;5015853;28;20054;-89
2022/11/24 12:03:16;;;;;;;25.55;4.88;;;;;;;;;;5018633;28;20092;-90
2022/11/24 12:06:14;;;;;;;18.23;4.32;;;;;;;;;;5018753;28;20050;-89
2022/11/24 12:08:41;;;;;;;12.15;4.57;;;;;;;;;;5019042;28;20048;-90
2022/11/24 12:11:48;;;;;;;14.27;4.40;;;;;;;;;;5019356;28;20073;-88
2022/11/24 12:14:23;;;;;;;16.13;5.15;;;;;;;;;;5002277;28;20042;-89
2022/11/24 12:17:27;;;;;;;14.32;5.30;;;;;;;;;;5014332;28;20068;-89
2022/11/24 12:20:14;;;;;;;18.08;4.28;;;;;;;;;;5011391;28;20061;-89
2022/11/24 12:22:53;;;;;;;11.07;4.18;;;;;;;;;;5016270;28;20041;-89
2022/11/24 12:25:26;;;;;;;17.00;4.15;;;;;;;;;;4999740;28;20042;-89
2022/11/24 12:28:31;;;;;;;17.25;4.60;;;;;;;;;;5000756;28;20061;-89
2022/11/24 12:31:11;;;;;;;17.55;4.78;;;;;;;;;;5015938;28;20443;-90
2022/11/24 12:34:15;;;;;;;13.30;3.92;;;;;;;;;;4980184;28;20921;-89
2022/11/24 12:37:00;;;;;;;14.18;4.50;;;;;;;;;;4959911;28;20106;-90
2022/11/24 12:39:34;;;;;;;29.52;6.32;;;;;;;;;;4958149;28;20517;-88
2022/11/24 12:42:18;;;;;;;14.32;5.75;;;;;;;;;;4943137;28;20142;-90
2022/11/24 12:44:54;;;;;;;18.73;5.95;;;;;;;;;;4958074;28;20185;-90
2022/11/24 12:48:12;;;;;;;14.40;4.80;;;;;;;;;;4943296;28;20059;-89
2022/11/24 12:51:10;;;;;;;16.42;3.95;;;;;;;;;;4939282;28;20052;-89
2022/11/24 12:54:08;;;;;;;20.02;4.63;;;;;;;;;;4957786;28;20512;-89
2022/11/24 12:56:58;;;;;;;16.33;3.97;;;;;;;;;;4945391;29;20051;-91
2022/11/24 13:00:06;;;;;;;14.18;4.25;;;;;;;;;;4939587;29;20063;-90
2022/11/24 13:02:55;;;;;;;17.27;3.92;;;;;;;;;;4944379;28;20054;-90
2022/11/24 13:05:53;;;;;;;14.75;5.22;;;;;;;;;;4955049;28;20055;-90
2022/11/24 13:08:22;;;;;;;15.75;4.05;;;;;;;;;;4941891;28;20132;-90
2022/11/24 13:11:14;;;;;;;16.80;4.13;;;;;;;;;;4958152;28;20059;-91
2022/11/24 13:13:59;;;;;;;17.13;4.05;;;;;;;;;;4988718;28;20050;-90
2022/11/24 13:16:32;;;;;;;18.58;4.32;;;;;;;;;;5016634;28;20046;-92
2022/11/24 13:19:36;;;;;;;14.57;4.40;;;;;;;;;;5016228;28;20072;-91
2022/11/24 13:22:28;;;;;;;17.15;3.78;;;;;;;;;;5031199;28;20122;-92
2022/11/24 13:25:29;;;;;;;17.80;4.82;;;;;;;;;;5002171;28;20416;-89
2022/11/24 13:28:03;;;;;;;22.92;4.90;;;;;;;;;;4942473;29;20087;-89
2022/11/24 13:30:32;;;;;;;16.65;4.20;;;;;;;;;;4943335;28;20043;-90
2022/11/24 13:33:11;;;;;;;14.68;4.43;;;;;;;;;;4941347;29;20067;-90
2022/11/24 13:36:02;;;;;;;17.17;3.92;;;;;;;;;;4944057;29;20075;-90
2022/11/24 13:38:44;;;;;;;14.43;4.15;;;;;;;;;;4927242;29;20110;-90
2022/11/24 13:41:35;;;;;;;16.23;4.40;;;;;;;;;;4954935;28;20043;-89
2022/11/24 13:44:13;;;;;;;14.73;4.30;;;;;;;;;;4941510;28;20055;-90
2022/11/24 13:47:20;;;;;;;17.38;4.13;;;;;;;;;;4950756;28;20057;-89
2022/11/24 13:49:49;;;;;;;16.90;4.65;;;;;;;;;;4930475;29;20055;-89
2022/11/24 13:52:56;;;;;;;24.10;4.72;;;;;;;;;;4928879;28;20047;-90
2022/11/24 13:55:27;;;;;;;21.30;4.68;;;;;;;;;;4933116;29;20058;-90
2022/11/24 13:58:04;;;;;;;20.45;4.78;;;;;;;;;;4952866;28;20055;-91
2022/11/24 14:00:34;;;;;;;22.95;5.35;;;;;;;;;;4935764;28;20391;-90
2022/11/24 14:03:19;;;;;;;17.80;3.88;;;;;;;;;;4962427;28;20584;-90
2022/11/24 14:05:50;;;;;;;16.23;4.38;;;;;;;;;;4989507;28;20754;-88
2022/11/24 14:08:31;;;;;;;15.80;4.95;;;;;;;;;;5004670;28;20046;-88
2022/11/24 14:11:01;;;;;;;18.80;4.88;;;;;;;;;;4990169;28;20066;-89
2022/11/24 14:13:31;;;;;;;23.60;4.55;;;;;;;;;;4989631;28;20049;-87
2022/11/24 14:16:14;;;;;;;19.75;5.03;;;;;;;;;;5010106;28;20049;-88
2022/11/24 14:18:45;;;;;;;13.07;4.93;;;;;;;;;;4991878;28;20148;-89
2022/11/24 14:21:32;;;;;;;22.08;4.88;;;;;;;;;;5006680;28;20073;-91
2022/11/24 14:24:10;;;;;;;19.98;5.03;;;;;;;;;;5005951;28;20042;-88
2022/11/24 14:26:40;;;;;;;18.38;5.32;;;;;;;;;;4992021;28;20096;-87
2022/11/24 14:29:19;;;;;;;18.58;5.22;;;;;;;;;;5010842;28;20053;-88
2022/11/24 14:32:00;;;;;;;24.15;5.10;;;;;;;;;;5016414;28;20427;-88
2022/11/24 14:34:29;;;;;;;18.60;5.00;;;;;;;;;;4987599;28;20053;-88
2022/11/24 14:37:00;;;;;;;23.60;5.55;;;;;;;;;;5008188;28;20129;-91
2022/11/24 14:39:29;;;;;;;20.08;5.50;;;;;;;;;;5005833;28;20570;-88
2022/11/24 14:42:14;;;;;;;18.20;5.47;;;;;;;;;;4987825;28;20054;-89
2022/11/24 14:45:02;;;;;;;23.10;6.15;;;;;;;;;;5007441;28;20052;-89
2022/11/24 14:47:35;;;;;;;14.93;4.63;;;;;;;;;;5001778;28;20541;-88
2022/11/24 14:50:14;;;;;;;16.88;4.57;;;;;;;;;;5004150;28;20062;-88
2022/11/24 14:52:44;;;;;;;18.90;5.32;;;;;;;;;;4987755;28;20129;-89
2022/11/24 14:55:41;;;;;;;12.88;4.47;;;;;;;;;;5006468;28;20136;-88
2022/11/24 14:58:31;;;;;;;16.67;5.28;;;;;;;;;;4924553;29;20075;-89
2022/11/24 15:01:17;;;;;;;14.68;5.07;;;;;;;;;;4923632;29;20052;-89
2022/11/24 15:04:06;;;;;;;11.45;5.05;;;;;;;;;;4925522;29;20893;-89
2022/11/24 15:06:58;;;;;;;16.30;4.47;;;;;;;;;;4926230;29;20059;-88
2022/11/24 15:09:30;;;;;;;17.05;5.13;;;;;;;;;;4929729;29;20055;-90
2022/11/24 15:12:04;;;;;;;19.73;4.80;;;;;;;;;;4927598;29;20051;-90
2022/11/24 15:15:19;;;;;;;23.85;4.60;;;;;;;;;;4913629;29;20052;-90
2022/11/24 15:18:00;;;;;;;22.65;5.15;;;;;;;;;;4926830;29;20083;-88
2022/11/24 15:20:52;;;;;;;15.07;6.00;;;;;;;;;;4923496;29;20094;-89
2022/11/24 15:23:26;;;;;;;17.92;5.25;;;;;;;;;;4927619;29;20079;-88
2022/11/24 15:26:17;;;;;;;20.60;5.55;;;;;;;;;;4928608;29;20526;-87
2022/11/24 15:28:58;;;;;;;14.25;5.00;;;;;;;;;;4928069;29;20067;-88
2022/11/24 15:31:26;;;;;;;13.30;4.60;;;;;;;;;;4913292;29;20099;-88
2022/11/24 15:33:54;;;;;;;17.45;4.70;;;;;;;;;;4941283;28;20050;-88
2022/11/24 15:36:21;;;;;;;18.35;4.75;;;;;;;;;;5008558;28;20456;-87